sensor_id;sensor_type;location;lat;lon;timestamp;P1;durP1;ratioP1;P2;durP2;ratioP2
75512;SDS011;64090;49.770;18.760;2023-04-15T00:00:35;2.40;;;1.50;;
75512;SDS011;64090;49.770;18.760;2023-04-15T00:03:52;2.20;;;1.20;;
75512;SDS011;64090;49.770;18.760;2023-04-15T00:06:56;2.30;;;1.40;;
75512;SDS011;64090;49.770;18.760;2023-04-15T00:09:59;2.50;;;2.00;;
75512;SDS011;64090;49.770;18.760;2023-04-15T00:13:02;2.00;;;1.10;;
75512;SDS011;64090;49.770;18.760;2023-04-15T00:16:06;2.50;;;1.30;;
75512;SDS011;64090;49.770;18.760;2023-04-15T00:19:09;3.00;;;1.50;;
75512;SDS011;64090;49.770;18.760;2023-04-15T00:22:13;2.20;;;1.30;;
75512;SDS011;64090;49.770;18.760;2023-04-15T00:25:16;2.20;;;1.20;;
75512;SDS011;64090;49.770;18.760;2023-04-15T00:28:19;1.80;;;1.20;;
75512;SDS011;64090;49.770;18.760;2023-04-15T00:31:22;1.60;;;0.90;;
75512;SDS011;64090;49.770;18.760;2023-04-15T00:34:26;1.80;;;1.30;;
75512;SDS011;64090;49.770;18.760;2023-04-15T00:37:29;1.90;;;1.20;;
75512;SDS011;64090;49.770;18.760;2023-04-15T00:40:32;2.70;;;1.20;;
75512;SDS011;64090;49.770;18.760;2023-04-15T00:43:35;1.70;;;1.00;;
75512;SDS011;64090;49.770;18.760;2023-04-15T00:46:38;1.70;;;1.00;;
75512;SDS011;64090;49.770;18.760;2023-04-15T00:49:42;2.40;;;2.10;;
75512;SDS011;64090;49.770;18.760;2023-04-15T00:52:45;1.90;;;1.20;;
75512;SDS011;64090;49.770;18.760;2023-04-15T00:55:48;1.80;;;1.10;;
75512;SDS011;64090;49.770;18.760;2023-04-15T00:58:52;3.40;;;1.70;;
75512;SDS011;64090;49.770;18.760;2023-04-15T01:01:55;2.30;;;1.30;;
75512;SDS011;64090;49.770;18.760;2023-04-15T01:04:58;3.30;;;1.70;;
75512;SDS011;64090;49.770;18.760;2023-04-15T01:08:02;3.90;;;1.90;;
75512;SDS011;64090;49.770;18.760;2023-04-15T01:11:05;2.90;;;2.10;;
75512;SDS011;64090;49.770;18.760;2023-04-15T01:14:09;2.20;;;1.30;;
75512;SDS011;64090;49.770;18.760;2023-04-15T01:17:12;2.10;;;1.30;;
75512;SDS011;64090;49.770;18.760;2023-04-15T01:20:15;2.40;;;1.30;;
75512;SDS011;64090;49.770;18.760;2023-04-15T01:23:19;1.50;;;0.90;;
75512;SDS011;64090;49.770;18.760;2023-04-15T01:26:24;2.00;;;1.00;;
75512;SDS011;64090;49.770;18.760;2023-04-15T01:29:27;3.60;;;1.50;;
75512;SDS011;64090;49.770;18.760;2023-04-15T01:32:30;4.00;;;2.30;;
75512;SDS011;64090;49.770;18.760;2023-04-15T01:35:34;3.00;;;1.90;;
75512;SDS011;64090;49.770;18.760;2023-04-15T01:38:37;2.80;;;1.50;;
75512;SDS011;64090;49.770;18.760;2023-04-15T01:41:40;4.10;;;1.40;;
75512;SDS011;64090;49.770;18.760;2023-04-15T01:44:43;2.60;;;1.80;;
75512;SDS011;64090;49.770;18.760;2023-04-15T01:47:46;2.50;;;2.00;;
75512;SDS011;64090;49.770;18.760;2023-04-15T01:50:49;2.10;;;1.70;;
75512;SDS011;64090;49.770;18.760;2023-04-15T01:53:53;1.30;;;0.80;;
75512;SDS011;64090;49.770;18.760;2023-04-15T01:56:58;1.30;;;1.00;;
75512;SDS011;64090;49.770;18.760;2023-04-15T02:00:01;1.60;;;1.10;;
75512;SDS011;64090;49.770;18.760;2023-04-15T02:03:06;2.50;;;1.50;;
75512;SDS011;64090;49.770;18.760;2023-04-15T02:06:09;5.50;;;3.60;;
75512;SDS011;64090;49.770;18.760;2023-04-15T02:09:11;7.60;;;5.70;;
75512;SDS011;64090;49.770;18.760;2023-04-15T02:12:14;6.60;;;5.80;;
75512;SDS011;64090;49.770;18.760;2023-04-15T02:15:17;4.10;;;3.30;;
75512;SDS011;64090;49.770;18.760;2023-04-15T02:18:20;3.00;;;1.40;;
75512;SDS011;64090;49.770;18.760;2023-04-15T02:21:25;3.10;;;1.80;;
75512;SDS011;64090;49.770;18.760;2023-04-15T02:24:28;3.10;;;2.30;;
75512;SDS011;64090;49.770;18.760;2023-04-15T02:27:32;2.60;;;1.50;;
75512;SDS011;64090;49.770;18.760;2023-04-15T02:30:35;2.30;;;1.50;;
75512;SDS011;64090;49.770;18.760;2023-04-15T02:33:38;2.90;;;1.70;;
75512;SDS011;64090;49.770;18.760;2023-04-15T02:36:41;2.30;;;1.80;;
75512;SDS011;64090;49.770;18.760;2023-04-15T02:39:44;3.10;;;2.10;;
75512;SDS011;64090;49.770;18.760;2023-04-15T02:42:47;3.40;;;2.00;;
75512;SDS011;64090;49.770;18.760;2023-04-15T02:45:50;3.40;;;1.70;;
75512;SDS011;64090;49.770;18.760;2023-04-15T02:48:53;3.50;;;2.00;;
75512;SDS011;64090;49.770;18.760;2023-04-15T02:51:57;4.00;;;1.90;;
75512;SDS011;64090;49.770;18.760;2023-04-15T02:55:01;3.80;;;1.90;;
75512;SDS011;64090;49.770;18.760;2023-04-15T02:58:05;2.90;;;1.70;;
75512;SDS011;64090;49.770;18.760;2023-04-15T03:01:09;2.80;;;2.00;;
75512;SDS011;64090;49.770;18.760;2023-04-15T03:04:12;3.10;;;2.50;;
75512;SDS011;64090;49.770;18.760;2023-04-15T03:07:16;2.80;;;1.90;;
75512;SDS011;64090;49.770;18.760;2023-04-15T03:10:20;3.90;;;2.60;;
75512;SDS011;64090;49.770;18.760;2023-04-15T03:13:23;3.60;;;2.40;;
75512;SDS011;64090;49.770;18.760;2023-04-15T03:16:26;3.60;;;2.90;;
75512;SDS011;64090;49.770;18.760;2023-04-15T03:19:29;3.80;;;2.20;;
75512;SDS011;64090;49.770;18.760;2023-04-15T03:22:33;3.70;;;2.40;;
75512;SDS011;64090;49.770;18.760;2023-04-15T03:25:36;3.40;;;1.70;;
75512;SDS011;64090;49.770;18.760;2023-04-15T03:28:39;3.70;;;2.00;;
75512;SDS011;64090;49.770;18.760;2023-04-15T03:31:42;3.40;;;1.80;;
75512;SDS011;64090;49.770;18.760;2023-04-15T03:34:45;2.90;;;1.90;;
75512;SDS011;64090;49.770;18.760;2023-04-15T03:37:48;4.30;;;2.30;;
75512;SDS011;64090;49.770;18.760;2023-04-15T03:40:50;3.40;;;2.30;;
75512;SDS011;64090;49.770;18.760;2023-04-15T03:43:53;4.20;;;1.80;;
75512;SDS011;64090;49.770;18.760;2023-04-15T03:46:56;2.80;;;1.60;;
75512;SDS011;64090;49.770;18.760;2023-04-15T03:49:59;3.00;;;2.40;;
75512;SDS011;64090;49.770;18.760;2023-04-15T03:53:02;2.70;;;1.70;;
75512;SDS011;64090;49.770;18.760;2023-04-15T03:56:05;3.30;;;2.20;;
75512;SDS011;64090;49.770;18.760;2023-04-15T03:59:08;4.60;;;2.90;;
75512;SDS011;64090;49.770;18.760;2023-04-15T04:02:12;4.80;;;2.50;;
75512;SDS011;64090;49.770;18.760;2023-04-15T04:05:15;4.10;;;2.70;;
75512;SDS011;64090;49.770;18.760;2023-04-15T04:08:18;4.10;;;2.20;;
75512;SDS011;64090;49.770;18.760;2023-04-15T04:11:23;3.40;;;2.50;;
75512;SDS011;64090;49.770;18.760;2023-04-15T04:14:26;2.00;;;1.60;;
75512;SDS011;64090;49.770;18.760;2023-04-15T04:17:31;3.50;;;2.10;;
75512;SDS011;64090;49.770;18.760;2023-04-15T04:20:34;3.00;;;2.00;;
75512;SDS011;64090;49.770;18.760;2023-04-15T04:23:37;5.20;;;2.40;;
75512;SDS011;64090;49.770;18.760;2023-04-15T04:26:40;4.60;;;3.30;;
75512;SDS011;64090;49.770;18.760;2023-04-15T04:29:43;4.10;;;2.90;;
75512;SDS011;64090;49.770;18.760;2023-04-15T04:32:46;3.80;;;2.80;;
75512;SDS011;64090;49.770;18.760;2023-04-15T04:35:49;3.60;;;2.90;;
75512;SDS011;64090;49.770;18.760;2023-04-15T04:38:51;4.10;;;2.70;;
75512;SDS011;64090;49.770;18.760;2023-04-15T04:41:54;3.30;;;2.00;;
75512;SDS011;64090;49.770;18.760;2023-04-15T04:44:57;3.30;;;2.40;;
75512;SDS011;64090;49.770;18.760;2023-04-15T04:48:00;3.50;;;2.50;;
75512;SDS011;64090;49.770;18.760;2023-04-15T04:51:03;3.70;;;3.30;;
75512;SDS011;64090;49.770;18.760;2023-04-15T04:54:06;4.10;;;2.60;;
75512;SDS011;64090;49.770;18.760;2023-04-15T04:57:09;4.20;;;2.70;;
75512;SDS011;64090;49.770;18.760;2023-04-15T05:00:15;4.10;;;2.80;;
75512;SDS011;64090;49.770;18.760;2023-04-15T05:03:18;3.10;;;2.20;;
75512;SDS011;64090;49.770;18.760;2023-04-15T05:06:21;4.30;;;2.70;;
75512;SDS011;64090;49.770;18.760;2023-04-15T05:09:25;3.60;;;2.80;;
75512;SDS011;64090;49.770;18.760;2023-04-15T05:12:28;4.70;;;3.20;;
75512;SDS011;64090;49.770;18.760;2023-04-15T05:15:30;3.40;;;2.50;;
75512;SDS011;64090;49.770;18.760;2023-04-15T05:18:34;4.00;;;2.80;;
75512;SDS011;64090;49.770;18.760;2023-04-15T05:21:38;3.90;;;2.70;;
75512;SDS011;64090;49.770;18.760;2023-04-15T05:24:41;3.80;;;2.30;;
75512;SDS011;64090;49.770;18.760;2023-04-15T05:27:44;3.50;;;2.40;;
75512;SDS011;64090;49.770;18.760;2023-04-15T05:30:47;3.40;;;2.30;;
75512;SDS011;64090;49.770;18.760;2023-04-15T05:33:50;4.60;;;2.70;;
75512;SDS011;64090;49.770;18.760;2023-04-15T05:36:52;3.50;;;1.80;;
75512;SDS011;64090;49.770;18.760;2023-04-15T05:39:55;3.70;;;2.20;;
75512;SDS011;64090;49.770;18.760;2023-04-15T05:42:58;2.90;;;2.10;;
75512;SDS011;64090;49.770;18.760;2023-04-15T05:46:01;3.80;;;2.80;;
75512;SDS011;64090;49.770;18.760;2023-04-15T05:49:04;3.70;;;3.00;;
75512;SDS011;64090;49.770;18.760;2023-04-15T05:52:07;4.10;;;2.10;;
75512;SDS011;64090;49.770;18.760;2023-04-15T05:55:10;15.60;;;9.80;;
75512;SDS011;64090;49.770;18.760;2023-04-15T05:58:13;3.00;;;2.20;;
75512;SDS011;64090;49.770;18.760;2023-04-15T06:01:16;2.70;;;1.20;;
75512;SDS011;64090;49.770;18.760;2023-04-15T06:04:19;2.70;;;1.40;;
75512;SDS011;64090;49.770;18.760;2023-04-15T06:07:23;1.20;;;0.80;;
75512;SDS011;64090;49.770;18.760;2023-04-15T06:10:26;1.80;;;1.40;;
75512;SDS011;64090;49.770;18.760;2023-04-15T06:13:29;1.60;;;1.10;;
75512;SDS011;64090;49.770;18.760;2023-04-15T06:16:32;1.40;;;1.10;;
75512;SDS011;64090;49.770;18.760;2023-04-15T06:19:36;2.70;;;1.90;;
75512;SDS011;64090;49.770;18.760;2023-04-15T06:22:39;2.90;;;1.30;;
75512;SDS011;64090;49.770;18.760;2023-04-15T06:25:42;1.30;;;0.90;;
75512;SDS011;64090;49.770;18.760;2023-04-15T06:28:45;2.80;;;0.80;;
75512;SDS011;64090;49.770;18.760;2023-04-15T06:31:48;2.20;;;1.40;;
75512;SDS011;64090;49.770;18.760;2023-04-15T06:34:51;3.20;;;1.60;;
75512;SDS011;64090;49.770;18.760;2023-04-15T06:37:54;3.00;;;2.00;;
75512;SDS011;64090;49.770;18.760;2023-04-15T06:40:57;1.60;;;1.10;;
75512;SDS011;64090;49.770;18.760;2023-04-15T06:44:00;2.00;;;1.00;;
75512;SDS011;64090;49.770;18.760;2023-04-15T06:47:02;1.70;;;0.80;;
75512;SDS011;64090;49.770;18.760;2023-04-15T06:50:06;1.10;;;0.70;;
75512;SDS011;64090;49.770;18.760;2023-04-15T06:53:10;1.40;;;0.90;;
75512;SDS011;64090;49.770;18.760;2023-04-15T06:56:13;1.90;;;0.90;;
75512;SDS011;64090;49.770;18.760;2023-04-15T06:59:17;1.10;;;0.90;;
75512;SDS011;64090;49.770;18.760;2023-04-15T07:02:20;1.10;;;0.90;;
75512;SDS011;64090;49.770;18.760;2023-04-15T07:05:23;1.30;;;0.80;;
75512;SDS011;64090;49.770;18.760;2023-04-15T07:08:26;1.40;;;1.10;;
75512;SDS011;64090;49.770;18.760;2023-04-15T07:11:29;2.40;;;1.10;;
75512;SDS011;64090;49.770;18.760;2023-04-15T07:14:32;2.00;;;1.50;;
75512;SDS011;64090;49.770;18.760;2023-04-15T07:17:35;1.60;;;0.90;;
75512;SDS011;64090;49.770;18.760;2023-04-15T07:20:38;1.00;;;0.70;;
75512;SDS011;64090;49.770;18.760;2023-04-15T07:23:41;1.60;;;1.20;;
75512;SDS011;64090;49.770;18.760;2023-04-15T07:26:44;1.10;;;0.80;;
75512;SDS011;64090;49.770;18.760;2023-04-15T07:29:48;1.00;;;0.70;;
75512;SDS011;64090;49.770;18.760;2023-04-15T07:32:53;0.80;;;0.50;;
75512;SDS011;64090;49.770;18.760;2023-04-15T07:35:56;1.30;;;0.40;;
75512;SDS011;64090;49.770;18.760;2023-04-15T07:38:58;0.70;;;0.50;;
75512;SDS011;64090;49.770;18.760;2023-04-15T07:42:04;0.90;;;0.60;;
75512;SDS011;64090;49.770;18.760;2023-04-15T07:45:07;1.00;;;0.70;;
75512;SDS011;64090;49.770;18.760;2023-04-15T07:48:10;0.60;;;0.50;;
75512;SDS011;64090;49.770;18.760;2023-04-15T07:51:13;0.80;;;0.40;;
75512;SDS011;64090;49.770;18.760;2023-04-15T07:54:16;1.00;;;0.50;;
75512;SDS011;64090;49.770;18.760;2023-04-15T07:57:19;1.20;;;0.60;;
75512;SDS011;64090;49.770;18.760;2023-04-15T08:00:22;1.00;;;0.50;;
75512;SDS011;64090;49.770;18.760;2023-04-15T08:03:25;1.40;;;0.90;;
75512;SDS011;64090;49.770;18.760;2023-04-15T08:06:29;1.00;;;0.70;;
75512;SDS011;64090;49.770;18.760;2023-04-15T08:09:32;0.70;;;0.60;;
75512;SDS011;64090;49.770;18.760;2023-04-15T08:12:35;0.70;;;0.50;;
75512;SDS011;64090;49.770;18.760;2023-04-15T08:15:38;1.00;;;0.70;;
75512;SDS011;64090;49.770;18.760;2023-04-15T08:18:41;1.60;;;0.50;;
75512;SDS011;64090;49.770;18.760;2023-04-15T08:21:44;3.80;;;2.50;;
75512;SDS011;64090;49.770;18.760;2023-04-15T08:24:48;1.20;;;0.70;;
75512;SDS011;64090;49.770;18.760;2023-04-15T08:27:51;1.50;;;0.60;;
75512;SDS011;64090;49.770;18.760;2023-04-15T08:30:56;3.10;;;1.90;;
75512;SDS011;64090;49.770;18.760;2023-04-15T08:33:59;1.10;;;0.50;;
75512;SDS011;64090;49.770;18.760;2023-04-15T08:37:02;1.80;;;0.90;;
75512;SDS011;64090;49.770;18.760;2023-04-15T08:40:05;1.10;;;0.70;;
75512;SDS011;64090;49.770;18.760;2023-04-15T08:43:11;1.20;;;0.60;;
75512;SDS011;64090;49.770;18.760;2023-04-15T08:46:17;1.30;;;0.60;;
75512;SDS011;64090;49.770;18.760;2023-04-15T08:49:21;1.60;;;0.80;;
75512;SDS011;64090;49.770;18.760;2023-04-15T08:52:29;1.90;;;1.00;;
75512;SDS011;64090;49.770;18.760;2023-04-15T08:55:33;3.80;;;2.70;;
75512;SDS011;64090;49.770;18.760;2023-04-15T08:58:38;1.70;;;0.90;;
75512;SDS011;64090;49.770;18.760;2023-04-15T09:01:41;1.40;;;0.90;;
75512;SDS011;64090;49.770;18.760;2023-04-15T09:04:45;1.50;;;0.70;;
75512;SDS011;64090;49.770;18.760;2023-04-15T09:07:49;1.80;;;0.90;;
75512;SDS011;64090;49.770;18.760;2023-04-15T09:10:53;1.90;;;0.90;;
75512;SDS011;64090;49.770;18.760;2023-04-15T09:13:56;1.60;;;0.80;;
75512;SDS011;64090;49.770;18.760;2023-04-15T09:17:00;2.10;;;0.90;;
75512;SDS011;64090;49.770;18.760;2023-04-15T09:20:09;1.80;;;1.00;;
75512;SDS011;64090;49.770;18.760;2023-04-15T09:23:13;1.50;;;0.80;;
75512;SDS011;64090;49.770;18.760;2023-04-15T09:26:17;2.00;;;0.80;;
75512;SDS011;64090;49.770;18.760;2023-04-15T09:29:20;1.70;;;1.20;;
75512;SDS011;64090;49.770;18.760;2023-04-15T09:32:29;2.00;;;1.00;;
75512;SDS011;64090;49.770;18.760;2023-04-15T09:35:32;1.40;;;1.00;;
75512;SDS011;64090;49.770;18.760;2023-04-15T09:38:47;1.30;;;1.00;;
75512;SDS011;64090;49.770;18.760;2023-04-15T09:42:03;1.70;;;1.30;;
75512;SDS011;64090;49.770;18.760;2023-04-15T09:45:09;1.40;;;1.10;;
75512;SDS011;64090;49.770;18.760;2023-04-15T09:51:23;2.80;;;1.80;;
75512;SDS011;64090;49.770;18.760;2023-04-15T09:54:37;2.50;;;1.40;;
75512;SDS011;64090;49.770;18.760;2023-04-15T09:57:40;1.40;;;1.00;;
75512;SDS011;64090;49.770;18.760;2023-04-15T10:00:44;1.70;;;1.30;;
75512;SDS011;64090;49.770;18.760;2023-04-15T10:03:49;3.10;;;1.70;;
75512;SDS011;64090;49.770;18.760;2023-04-15T10:06:54;2.80;;;1.80;;
75512;SDS011;64090;49.770;18.760;2023-04-15T10:09:58;3.10;;;2.10;;
75512;SDS011;64090;49.770;18.760;2023-04-15T10:13:05;2.20;;;1.70;;
75512;SDS011;64090;49.770;18.760;2023-04-15T10:16:15;2.70;;;2.20;;
75512;SDS011;64090;49.770;18.760;2023-04-15T10:19:21;1.90;;;1.40;;
75512;SDS011;64090;49.770;18.760;2023-04-15T10:22:28;2.60;;;1.60;;
75512;SDS011;64090;49.770;18.760;2023-04-15T10:25:32;3.00;;;2.00;;
75512;SDS011;64090;49.770;18.760;2023-04-15T10:28:35;2.50;;;1.80;;
75512;SDS011;64090;49.770;18.760;2023-04-15T10:31:38;2.10;;;1.40;;
75512;SDS011;64090;49.770;18.760;2023-04-15T10:34:43;1.90;;;1.40;;
75512;SDS011;64090;49.770;18.760;2023-04-15T10:37:47;2.40;;;1.50;;
75512;SDS011;64090;49.770;18.760;2023-04-15T10:40:52;2.10;;;1.50;;
75512;SDS011;64090;49.770;18.760;2023-04-15T10:43:59;2.10;;;1.60;;
75512;SDS011;64090;49.770;18.760;2023-04-15T10:47:13;2.90;;;1.60;;
75512;SDS011;64090;49.770;18.760;2023-04-15T10:50:20;2.80;;;1.60;;
75512;SDS011;64090;49.770;18.760;2023-04-15T10:53:27;2.50;;;1.40;;
75512;SDS011;64090;49.770;18.760;2023-04-15T10:56:31;2.30;;;1.20;;
75512;SDS011;64090;49.770;18.760;2023-04-15T10:59:38;2.30;;;1.80;;
75512;SDS011;64090;49.770;18.760;2023-04-15T11:03:09;2.30;;;1.70;;
75512;SDS011;64090;49.770;18.760;2023-04-15T11:06:12;3.50;;;1.90;;
75512;SDS011;64090;49.770;18.760;2023-04-15T11:09:31;2.40;;;1.60;;
75512;SDS011;64090;49.770;18.760;2023-04-15T11:12:44;2.10;;;1.50;;
75512;SDS011;64090;49.770;18.760;2023-04-15T11:15:47;2.30;;;1.60;;
75512;SDS011;64090;49.770;18.760;2023-04-15T11:18:54;2.70;;;1.80;;
75512;SDS011;64090;49.770;18.760;2023-04-15T11:22:04;2.10;;;1.60;;
75512;SDS011;64090;49.770;18.760;2023-04-15T11:28:36;2.60;;;1.20;;
75512;SDS011;64090;49.770;18.760;2023-04-15T11:31:40;2.80;;;1.80;;
75512;SDS011;64090;49.770;18.760;2023-04-15T11:34:44;2.20;;;1.60;;
75512;SDS011;64090;49.770;18.760;2023-04-15T11:37:48;1.60;;;1.20;;
75512;SDS011;64090;49.770;18.760;2023-04-15T11:40:52;2.20;;;1.70;;
75512;SDS011;64090;49.770;18.760;2023-04-15T11:43:55;2.30;;;1.40;;
75512;SDS011;64090;49.770;18.760;2023-04-15T11:46:58;1.50;;;1.20;;
75512;SDS011;64090;49.770;18.760;2023-04-15T11:50:17;2.40;;;1.40;;
75512;SDS011;64090;49.770;18.760;2023-04-15T11:53:22;1.90;;;1.60;;
75512;SDS011;64090;49.770;18.760;2023-04-15T11:56:27;1.70;;;1.30;;
75512;SDS011;64090;49.770;18.760;2023-04-15T11:59:40;2.00;;;1.30;;
75512;SDS011;64090;49.770;18.760;2023-04-15T12:02:47;1.80;;;1.40;;
75512;SDS011;64090;49.770;18.760;2023-04-15T12:06:06;1.90;;;1.30;;
75512;SDS011;64090;49.770;18.760;2023-04-15T12:09:12;2.00;;;1.50;;
75512;SDS011;64090;49.770;18.760;2023-04-15T12:12:16;2.20;;;1.20;;
75512;SDS011;64090;49.770;18.760;2023-04-15T12:15:21;1.70;;;1.60;;
75512;SDS011;64090;49.770;18.760;2023-04-15T12:18:25;2.50;;;1.30;;
75512;SDS011;64090;49.770;18.760;2023-04-15T12:21:32;1.90;;;1.20;;
75512;SDS011;64090;49.770;18.760;2023-04-15T12:24:36;2.20;;;1.40;;
75512;SDS011;64090;49.770;18.760;2023-04-15T12:27:40;2.50;;;1.80;;
75512;SDS011;64090;49.770;18.760;2023-04-15T12:30:50;3.20;;;2.70;;
75512;SDS011;64090;49.770;18.760;2023-04-15T12:33:56;1.80;;;1.50;;
75512;SDS011;64090;49.770;18.760;2023-04-15T12:37:00;2.30;;;1.70;;
75512;SDS011;64090;49.770;18.760;2023-04-15T12:40:07;2.20;;;1.50;;
75512;SDS011;64090;49.770;18.760;2023-04-15T12:43:10;2.30;;;1.70;;
75512;SDS011;64090;49.770;18.760;2023-04-15T12:46:13;3.70;;;2.30;;
75512;SDS011;64090;49.770;18.760;2023-04-15T12:49:17;2.80;;;2.10;;
75512;SDS011;64090;49.770;18.760;2023-04-15T12:52:22;2.10;;;1.60;;
75512;SDS011;64090;49.770;18.760;2023-04-15T12:55:26;2.30;;;1.70;;
75512;SDS011;64090;49.770;18.760;2023-04-15T12:58:29;2.40;;;1.70;;
75512;SDS011;64090;49.770;18.760;2023-04-15T13:01:32;6.80;;;3.80;;
75512;SDS011;64090;49.770;18.760;2023-04-15T13:04:35;3.30;;;1.90;;
75512;SDS011;64090;49.770;18.760;2023-04-15T13:07:38;2.30;;;1.60;;
75512;SDS011;64090;49.770;18.760;2023-04-15T13:10:41;3.90;;;2.60;;
75512;SDS011;64090;49.770;18.760;2023-04-15T13:13:45;4.40;;;2.40;;
75512;SDS011;64090;49.770;18.760;2023-04-15T13:16:48;3.80;;;1.80;;
75512;SDS011;64090;49.770;18.760;2023-04-15T13:19:51;2.70;;;1.80;;
75512;SDS011;64090;49.770;18.760;2023-04-15T13:22:54;2.00;;;1.50;;
75512;SDS011;64090;49.770;18.760;2023-04-15T13:25:57;2.10;;;1.80;;
75512;SDS011;64090;49.770;18.760;2023-04-15T13:29:00;2.10;;;1.60;;
75512;SDS011;64090;49.770;18.760;2023-04-15T13:32:03;5.70;;;3.60;;
75512;SDS011;64090;49.770;18.760;2023-04-15T13:35:06;4.80;;;2.60;;
75512;SDS011;64090;49.770;18.760;2023-04-15T13:38:10;5.30;;;3.60;;
75512;SDS011;64090;49.770;18.760;2023-04-15T13:41:13;5.80;;;3.50;;
75512;SDS011;64090;49.770;18.760;2023-04-15T13:44:15;4.30;;;2.60;;
75512;SDS011;64090;49.770;18.760;2023-04-15T13:47:20;2.80;;;1.90;;
75512;SDS011;64090;49.770;18.760;2023-04-15T13:50:24;2.30;;;1.40;;
75512;SDS011;64090;49.770;18.760;2023-04-15T13:54:02;2.80;;;2.00;;
75512;SDS011;64090;49.770;18.760;2023-04-15T13:57:50;4.80;;;3.00;;
75512;SDS011;64090;49.770;18.760;2023-04-15T14:01:39;2.40;;;1.30;;
75512;SDS011;64090;49.770;18.760;2023-04-15T14:05:18;3.10;;;2.40;;
75512;SDS011;64090;49.770;18.760;2023-04-15T14:09:02;4.00;;;2.70;;
75512;SDS011;64090;49.770;18.760;2023-04-15T14:12:53;4.20;;;2.30;;
75512;SDS011;64090;49.770;18.760;2023-04-15T14:16:22;2.90;;;1.50;;
75512;SDS011;64090;49.770;18.760;2023-04-15T14:20:13;3.70;;;2.30;;
75512;SDS011;64090;49.770;18.760;2023-04-15T14:24:16;5.90;;;2.30;;
75512;SDS011;64090;49.770;18.760;2023-04-15T14:43:55;4.40;;;3.00;;
75512;SDS011;64090;49.770;18.760;2023-04-15T14:51:52;5.90;;;3.60;;
75512;SDS011;64090;49.770;18.760;2023-04-15T14:55:00;4.10;;;2.60;;
75512;SDS011;64090;49.770;18.760;2023-04-15T14:59:01;3.10;;;1.80;;
75512;SDS011;64090;49.770;18.760;2023-04-15T15:03:00;3.50;;;2.40;;
75512;SDS011;64090;49.770;18.760;2023-04-15T15:06:23;5.10;;;2.60;;
75512;SDS011;64090;49.770;18.760;2023-04-15T15:10:13;5.10;;;3.10;;
75512;SDS011;64090;49.770;18.760;2023-04-15T15:13:26;4.20;;;3.00;;
75512;SDS011;64090;49.770;18.760;2023-04-15T15:16:48;4.50;;;2.80;;
75512;SDS011;64090;49.770;18.760;2023-04-15T15:20:48;6.30;;;3.60;;
75512;SDS011;64090;49.770;18.760;2023-04-15T15:24:12;3.50;;;2.60;;
75512;SDS011;64090;49.770;18.760;2023-04-15T15:27:38;3.70;;;2.30;;
75512;SDS011;64090;49.770;18.760;2023-04-15T15:31:15;5.70;;;2.80;;
75512;SDS011;64090;49.770;18.760;2023-04-15T15:35:00;5.70;;;4.00;;
75512;SDS011;64090;49.770;18.760;2023-04-15T15:38:25;6.40;;;4.10;;
75512;SDS011;64090;49.770;18.760;2023-04-15T15:41:57;9.60;;;5.00;;
75512;SDS011;64090;49.770;18.760;2023-04-15T15:45:29;10.90;;;5.20;;
75512;SDS011;64090;49.770;18.760;2023-04-15T15:49:16;9.20;;;5.60;;
75512;SDS011;64090;49.770;18.760;2023-04-15T15:52:52;6.30;;;4.50;;
75512;SDS011;64090;49.770;18.760;2023-04-15T15:56:06;5.90;;;4.00;;
75512;SDS011;64090;49.770;18.760;2023-04-15T15:59:13;5.90;;;3.70;;
75512;SDS011;64090;49.770;18.760;2023-04-15T16:02:18;6.50;;;4.10;;
75512;SDS011;64090;49.770;18.760;2023-04-15T16:06:15;4.00;;;3.10;;
75512;SDS011;64090;49.770;18.760;2023-04-15T16:09:32;5.50;;;3.40;;
75512;SDS011;64090;49.770;18.760;2023-04-15T16:12:43;22.60;;;12.40;;
75512;SDS011;64090;49.770;18.760;2023-04-15T16:15:49;10.00;;;7.20;;
75512;SDS011;64090;49.770;18.760;2023-04-15T16:19:02;7.50;;;4.80;;
75512;SDS011;64090;49.770;18.760;2023-04-15T16:22:33;9.00;;;5.10;;
75512;SDS011;64090;49.770;18.760;2023-04-15T16:26:13;9.50;;;5.80;;
75512;SDS011;64090;49.770;18.760;2023-04-15T16:29:50;8.70;;;5.50;;
75512;SDS011;64090;49.770;18.760;2023-04-15T16:34:03;8.40;;;5.60;;
75512;SDS011;64090;49.770;18.760;2023-04-15T16:37:29;6.00;;;4.50;;
75512;SDS011;64090;49.770;18.760;2023-04-15T16:50:49;7.70;;;5.00;;
75512;SDS011;64090;49.770;18.760;2023-04-15T17:57:55;16.80;;;9.30;;
75512;SDS011;64090;49.770;18.760;2023-04-15T18:06:55;20.20;;;12.70;;
75512;SDS011;64090;49.770;18.760;2023-04-15T19:13:07;16.90;;;8.50;;
75512;SDS011;64090;49.770;18.760;2023-04-15T19:21:34;14.10;;;7.90;;
75512;SDS011;64090;49.770;18.760;2023-04-15T19:25:42;15.50;;;8.70;;
75512;SDS011;64090;49.770;18.760;2023-04-15T20:32:16;19.80;;;12.50;;
75512;SDS011;64090;49.770;18.760;2023-04-15T22:04:51;8.40;;;5.60;;
75512;SDS011;64090;49.770;18.760;2023-04-15T22:48:19;5.70;;;4.20;;
